Time;durP1;ratioP1;P1;durP2;ratioP2;P2;SDS_P1;SDS_P2;PMS_P1;PMS_P2;Temp;Humidity;BMP_temperature;BMP_pressure;BME280_temperature;BME280_humidity;BME280_pressure;Samples;Min_cycle;Max_cycle;Signal;HPM_P1;HPM_P2
2023/04/08 00:03:20;;;;;;;13.60;10.43;;;;;;;;;;12818334;23;20021;-92
2023/04/08 00:08:23;;;;;;;16.55;10.88;;;;;;;;;;12807705;23;20044;-85
2023/04/08 00:13:25;;;;;;;14.80;10.27;;;;;;;;;;12802688;23;20013;-83
2023/04/08 00:18:28;;;;;;;14.80;10.07;;;;;;;;;;12797919;23;20028;-84
2023/04/08 00:23:29;;;;;;;14.63;11.03;;;;;;;;;;12789769;23;20017;-83
2023/04/08 00:28:32;;;;;;;20.40;11.93;;;;;;;;;;12786706;23;20037;-83
2023/04/08 00:33:34;;;;;;;14.47;10.70;;;;;;;;;;12787344;23;20326;-83
2023/04/08 00:38:35;;;;;;;15.07;10.35;;;;;;;;;;12786065;23;20023;-84
2023/04/08 00:43:37;;;;;;;14.45;10.63;;;;;;;;;;12769110;23;20060;-85
2023/04/08 00:48:37;;;;;;;14.70;10.00;;;;;;;;;;12833036;23;20000;-85
2023/04/08 00:53:39;;;;;;;13.45;10.50;;;;;;;;;;12828178;23;20035;-83
2023/04/08 00:58:39;;;;;;;14.98;10.57;;;;;;;;;;12843787;23;20001;-81
2023/04/08 01:04:07;;;;;;;15.55;10.45;;;;;;;;;;12804281;23;20021;-81
2023/04/08 01:09:09;;;;;;;15.25;10.70;;;;;;;;;;12787095;23;20013;-81
2023/04/08 01:14:13;;;;;;;15.80;11.13;;;;;;;;;;12789816;23;20021;-81
2023/04/08 01:19:23;;;;;;;15.57;11.50;;;;;;;;;;12783273;23;20450;-80
2023/04/08 01:24:27;;;;;;;16.20;11.50;;;;;;;;;;12780563;23;20037;-80
2023/04/08 01:29:30;;;;;;;18.50;12.30;;;;;;;;;;12780380;23;20087;-80
2023/04/08 01:34:32;;;;;;;17.83;11.82;;;;;;;;;;12784009;23;20498;-80
2023/04/08 01:39:35;;;;;;;18.27;11.95;;;;;;;;;;12798098;23;20533;-79
2023/04/08 01:44:39;;;;;;;15.93;11.73;;;;;;;;;;12810130;23;20009;-80
2023/04/08 01:49:41;;;;;;;17.20;11.25;;;;;;;;;;12799121;23;20871;-79
2023/04/08 01:54:42;;;;;;;17.20;12.20;;;;;;;;;;12780733;23;20045;-78
2023/04/08 01:59:44;;;;;;;18.23;12.13;;;;;;;;;;12786488;23;20331;-80
2023/04/08 02:04:47;;;;;;;18.90;11.98;;;;;;;;;;12792282;23;20035;-81
2023/04/08 02:09:47;;;;;;;16.30;11.45;;;;;;;;;;12814511;23;20016;-81
2023/04/08 02:14:48;;;;;;;17.42;12.13;;;;;;;;;;12810265;23;20458;-77
2023/04/08 02:20:02;;;;;;;15.73;12.30;;;;;;;;;;12818934;23;20013;-84
2023/04/08 02:25:08;;;;;;;35.35;20.42;;;;;;;;;;12846371;23;20009;-77
2023/04/08 02:30:10;;;;;;;24.55;14.07;;;;;;;;;;12825032;23;20036;-81
2023/04/08 02:35:12;;;;;;;16.23;12.03;;;;;;;;;;12817275;23;20013;-79
2023/04/08 02:40:29;;;;;;;16.33;12.07;;;;;;;;;;12784609;23;20013;-81
2023/04/08 02:45:40;;;;;;;13.98;10.77;;;;;;;;;;12781351;23;20020;-80
2023/04/08 02:50:42;;;;;;;18.27;11.95;;;;;;;;;;12787522;23;20056;-79
2023/04/08 02:55:43;;;;;;;17.23;11.52;;;;;;;;;;12787200;23;20009;-82
2023/04/08 03:00:45;;;;;;;17.75;12.52;;;;;;;;;;12820656;23;20009;-81
2023/04/08 03:05:48;;;;;;;17.85;11.30;;;;;;;;;;12806349;23;20017;-80
2023/04/08 03:10:49;;;;;;;14.88;11.30;;;;;;;;;;12810927;23;20024;-78
2023/04/08 03:15:49;;;;;;;16.60;11.85;;;;;;;;;;12784036;23;20012;-83
2023/04/08 03:20:51;;;;;;;16.95;12.10;;;;;;;;;;12782447;23;20486;-82
2023/04/08 03:25:52;;;;;;;16.60;11.25;;;;;;;;;;12786446;23;20025;-82
2023/04/08 03:30:53;;;;;;;16.35;11.88;;;;;;;;;;12785642;23;20096;-81
2023/04/08 03:35:59;;;;;;;17.20;11.57;;;;;;;;;;12782617;23;20017;-80
2023/04/08 03:41:00;;;;;;;16.23;11.82;;;;;;;;;;12781933;23;20020;-79
2023/04/08 03:46:00;;;;;;;16.38;12.23;;;;;;;;;;12784545;23;20028;-79
2023/04/08 03:51:03;;;;;;;18.17;12.30;;;;;;;;;;12783777;23;20047;-79
2023/04/08 03:56:03;;;;;;;17.70;12.07;;;;;;;;;;12785295;23;20267;-80
2023/04/08 04:01:04;;;;;;;17.00;12.13;;;;;;;;;;12789423;23;20017;-83
2023/04/08 04:06:05;;;;;;;19.13;12.45;;;;;;;;;;12788126;23;20023;-81
2023/04/08 04:11:06;;;;;;;14.55;11.93;;;;;;;;;;12823796;23;20083;-81
2023/04/08 04:16:06;;;;;;;19.15;12.27;;;;;;;;;;12829154;23;20024;-79
2023/04/08 04:21:07;;;;;;;14.52;11.07;;;;;;;;;;12821587;23;20049;-78
2023/04/08 04:26:08;;;;;;;19.50;11.50;;;;;;;;;;12802272;23;20025;-79
2023/04/08 04:31:20;;;;;;;18.25;12.05;;;;;;;;;;12787160;23;20021;-79
2023/04/08 04:36:21;;;;;;;15.40;10.77;;;;;;;;;;12783180;23;20422;-81
2023/04/08 04:41:21;;;;;;;16.13;11.07;;;;;;;;;;12786951;23;20021;-81
2023/04/08 04:46:22;;;;;;;16.00;11.40;;;;;;;;;;12792511;23;20272;-80
2023/04/08 04:51:22;;;;;;;16.45;11.27;;;;;;;;;;12794274;23;20064;-79
2023/04/08 04:56:22;;;;;;;14.97;10.80;;;;;;;;;;12819796;23;20028;-80
2023/04/08 05:01:23;;;;;;;16.88;11.25;;;;;;;;;;12814639;23;20059;-80
2023/04/08 05:06:23;;;;;;;14.63;11.50;;;;;;;;;;12835233;23;20012;-78
2023/04/08 05:11:24;;;;;;;15.57;11.90;;;;;;;;;;12795514;23;20017;-80
2023/04/08 05:16:24;;;;;;;18.92;11.27;;;;;;;;;;12815497;23;20253;-82
2023/04/08 05:21:26;;;;;;;15.80;10.90;;;;;;;;;;12808489;23;20057;-80
2023/04/08 05:26:28;;;;;;;15.73;11.25;;;;;;;;;;12842126;23;20001;-81
2023/04/08 05:31:28;;;;;;;14.93;11.27;;;;;;;;;;12821114;23;20450;-81
2023/04/08 05:36:29;;;;;;;14.52;10.88;;;;;;;;;;12781895;23;20017;-81
2023/04/08 05:41:29;;;;;;;15.57;11.23;;;;;;;;;;12781037;23;20009;-76
2023/04/08 05:46:30;;;;;;;16.77;12.55;;;;;;;;;;12780214;23;20334;-81
2023/04/08 05:51:31;;;;;;;17.95;11.88;;;;;;;;;;12758737;23;20021;-82
2023/04/08 05:56:32;;;;;;;16.73;12.13;;;;;;;;;;12787141;23;20009;-85
2023/04/08 06:01:35;;;;;;;18.88;11.65;;;;;;;;;;12807113;23;20025;-81
2023/04/08 06:06:39;;;;;;;17.13;12.73;;;;;;;;;;12821735;23;20028;-84
2023/04/08 06:11:41;;;;;;;19.15;12.02;;;;;;;;;;12795071;23;20020;-81
2023/04/08 06:16:41;;;;;;;15.95;10.90;;;;;;;;;;12780934;23;20044;-81
2023/04/08 06:21:43;;;;;;;14.00;11.48;;;;;;;;;;12777028;23;20028;-80
2023/04/08 06:26:43;;;;;;;18.17;12.32;;;;;;;;;;12781654;23;20011;-86
2023/04/08 06:31:44;;;;;;;14.50;11.07;;;;;;;;;;12788711;23;20024;-84
2023/04/08 06:36:45;;;;;;;16.75;11.50;;;;;;;;;;12785290;23;21086;-82
2023/04/08 06:41:46;;;;;;;15.17;10.63;;;;;;;;;;12788506;23;20016;-82
2023/04/08 06:47:01;;;;;;;14.18;11.00;;;;;;;;;;12816681;23;20248;-82
2023/04/08 06:52:05;;;;;;;17.17;11.50;;;;;;;;;;12791854;23;20020;-82
2023/04/08 06:57:05;;;;;;;16.52;10.85;;;;;;;;;;12779871;23;20252;-83
2023/04/08 07:02:06;;;;;;;18.65;12.23;;;;;;;;;;12785518;23;20017;-80
2023/04/08 07:07:06;;;;;;;19.02;12.07;;;;;;;;;;12759749;23;20431;-79
2023/04/08 07:12:08;;;;;;;16.98;11.93;;;;;;;;;;12786897;23;20025;-82
2023/04/08 07:17:09;;;;;;;18.43;12.53;;;;;;;;;;12784766;23;20088;-81
2023/04/08 07:22:10;;;;;;;22.75;15.60;;;;;;;;;;12793326;23;20302;-84
2023/04/08 07:27:10;;;;;;;16.17;11.32;;;;;;;;;;12802265;23;20067;-79
2023/04/08 07:32:11;;;;;;;17.02;11.30;;;;;;;;;;12779652;23;20023;-78
2023/04/08 07:37:11;;;;;;;18.10;10.82;;;;;;;;;;12822762;23;20013;-80
2023/04/08 07:42:11;;;;;;;14.37;10.07;;;;;;;;;;12789101;23;20005;-84
2023/04/08 07:47:12;;;;;;;13.10;10.13;;;;;;;;;;12796069;23;20251;-81
2023/04/08 07:52:12;;;;;;;13.38;9.20;;;;;;;;;;12785831;23;20331;-83
2023/04/08 07:57:13;;;;;;;15.20;9.17;;;;;;;;;;12784929;23;20016;-78
2023/04/08 08:02:13;;;;;;;11.83;7.90;;;;;;;;;;12781062;23;20306;-79
2023/04/08 08:07:14;;;;;;;14.20;8.43;;;;;;;;;;12780526;23;20256;-78
2023/04/08 08:12:15;;;;;;;12.32;9.15;;;;;;;;;;12759493;23;20276;-83
2023/04/08 08:17:16;;;;;;;12.70;9.10;;;;;;;;;;12784838;23;20019;-80
2023/04/08 08:22:17;;;;;;;12.83;9.20;;;;;;;;;;12785488;23;20036;-79
2023/04/08 08:27:18;;;;;;;11.70;8.70;;;;;;;;;;12783558;23;20346;-79
2023/04/08 08:32:18;;;;;;;14.00;9.17;;;;;;;;;;12781545;23;20502;-79
2023/04/08 08:37:19;;;;;;;14.38;10.27;;;;;;;;;;12783822;23;21015;-81
2023/04/08 08:42:21;;;;;;;16.08;10.00;;;;;;;;;;12783767;23;20024;-80
2023/04/08 08:47:21;;;;;;;13.88;9.25;;;;;;;;;;12788757;23;20027;-82
2023/04/08 08:52:21;;;;;;;13.68;8.73;;;;;;;;;;12796706;23;20430;-82
2023/04/08 08:57:22;;;;;;;13.57;8.82;;;;;;;;;;12789564;23;20013;-81
2023/04/08 09:02:27;;;;;;;15.48;9.88;;;;;;;;;;12784934;23;20063;-79
2023/04/08 09:07:30;;;;;;;12.95;8.90;;;;;;;;;;12785426;23;20013;-81
2023/04/08 09:12:31;;;;;;;13.27;9.63;;;;;;;;;;12790272;23;20020;-81
2023/04/08 09:17:36;;;;;;;13.32;9.38;;;;;;;;;;12818563;23;20013;-80
2023/04/08 09:22:58;;;;;;;12.55;9.07;;;;;;;;;;12800177;23;20024;-82
2023/04/08 09:27:59;;;;;;;15.10;9.70;;;;;;;;;;12810715;23;20425;-81
2023/04/08 09:33:00;;;;;;;13.60;9.38;;;;;;;;;;12805643;23;20028;-77
2023/04/08 09:38:01;;;;;;;14.68;9.15;;;;;;;;;;12779948;23;20009;-78
2023/04/08 09:43:04;;;;;;;12.93;8.45;;;;;;;;;;12782524;23;20100;-79
2023/04/08 09:48:31;;;;;;;12.75;8.73;;;;;;;;;;12785380;23;20106;-80
2023/04/08 09:53:37;;;;;;;13.32;9.23;;;;;;;;;;12774591;23;20383;-79
2023/04/08 09:58:51;;;;;;;12.77;9.15;;;;;;;;;;12784036;23;20043;-82
2023/04/08 10:03:52;;;;;;;13.85;9.02;;;;;;;;;;12784546;23;20690;-79
2023/04/08 10:08:54;;;;;;;11.68;8.45;;;;;;;;;;12782625;23;20091;-79
2023/04/08 10:13:55;;;;;;;8.65;7.20;;;;;;;;;;12782631;23;20025;-80
2023/04/08 10:18:58;;;;;;;10.18;7.72;;;;;;;;;;12793976;23;20017;-82
2023/04/08 10:24:00;;;;;;;9.95;7.55;;;;;;;;;;12790470;23;20009;-83
2023/04/08 10:29:20;;;;;;;9.25;7.57;;;;;;;;;;12790423;23;20020;-81
2023/04/08 10:34:23;;;;;;;10.50;7.30;;;;;;;;;;12791910;23;20027;-85
2023/04/08 10:39:26;;;;;;;7.95;6.65;;;;;;;;;;12793341;23;20020;-81
2023/04/08 10:44:28;;;;;;;8.23;7.10;;;;;;;;;;12803180;23;20001;-81
2023/04/08 10:49:33;;;;;;;10.85;7.63;;;;;;;;;;12808532;23;20065;-82
2023/04/08 10:54:35;;;;;;;9.52;6.63;;;;;;;;;;12822990;23;20077;-83
2023/04/08 10:59:38;;;;;;;9.60;6.80;;;;;;;;;;12817153;23;20035;-83
2023/04/08 11:04:43;;;;;;;7.18;6.45;;;;;;;;;;12825563;23;20009;-85
2023/04/08 11:09:44;;;;;;;8.43;6.65;;;;;;;;;;12815873;23;20024;-77
2023/04/08 11:14:44;;;;;;;7.57;6.07;;;;;;;;;;12778828;23;20032;-76
2023/04/08 11:19:45;;;;;;;7.73;6.50;;;;;;;;;;12780953;23;20450;-81
2023/04/08 11:24:46;;;;;;;7.00;5.97;;;;;;;;;;12786070;23;20997;-82
2023/04/08 11:29:48;;;;;;;7.30;6.15;;;;;;;;;;12813968;23;20020;-76
2023/04/08 11:34:48;;;;;;;8.20;6.25;;;;;;;;;;12816661;23;20027;-81
2023/04/08 11:39:53;;;;;;;7.20;5.93;;;;;;;;;;12808608;23;20036;-79
2023/04/08 11:44:54;;;;;;;7.95;6.22;;;;;;;;;;12816269;23;20059;-80
2023/04/08 11:49:55;;;;;;;6.40;5.80;;;;;;;;;;12830395;23;20001;-84
2023/04/08 11:54:55;;;;;;;6.07;5.38;;;;;;;;;;12840697;23;20055;-80
2023/04/08 11:59:56;;;;;;;6.65;5.32;;;;;;;;;;12796472;23;20749;-81
2023/04/08 12:04:56;;;;;;;8.27;5.55;;;;;;;;;;12804696;23;20036;-80
2023/04/08 12:09:57;;;;;;;5.85;5.30;;;;;;;;;;12794862;23;20098;-81
2023/04/08 12:14:57;;;;;;;6.28;5.40;;;;;;;;;;12795920;23;20027;-81
2023/04/08 12:19:58;;;;;;;8.32;5.70;;;;;;;;;;12767585;23;20013;-82
2023/04/08 12:24:58;;;;;;;5.30;4.80;;;;;;;;;;12798387;23;20060;-81
2023/04/08 12:29:59;;;;;;;6.60;4.80;;;;;;;;;;12801577;23;20426;-80
2023/04/08 12:34:59;;;;;;;6.25;5.32;;;;;;;;;;12811896;23;20265;-81
2023/04/08 12:39:59;;;;;;;6.03;5.03;;;;;;;;;;12825722;23;20012;-80
2023/04/08 12:45:00;;;;;;;5.95;5.22;;;;;;;;;;12836569;23;19998;-81
2023/04/08 12:50:01;;;;;;;6.07;5.03;;;;;;;;;;12834664;23;20013;-80
2023/04/08 12:55:01;;;;;;;7.00;6.30;;;;;;;;;;12814223;23;20055;-81
2023/04/08 13:00:03;;;;;;;8.32;6.03;;;;;;;;;;12791228;23;20019;-79
2023/04/08 13:05:03;;;;;;;8.02;5.63;;;;;;;;;;12780898;23;20081;-80
2023/04/08 13:10:06;;;;;;;7.75;5.78;;;;;;;;;;12782126;23;20529;-78
2023/04/08 13:15:07;;;;;;;7.38;5.20;;;;;;;;;;12784363;23;20025;-83
2023/04/08 13:20:09;;;;;;;6.70;5.43;;;;;;;;;;12796162;23;20036;-86
2023/04/08 13:25:09;;;;;;;5.33;4.13;;;;;;;;;;12797301;23;20013;-83
2023/04/08 13:30:11;;;;;;;4.72;3.75;;;;;;;;;;12790723;23;20024;-84
2023/04/08 13:35:15;;;;;;;5.07;3.85;;;;;;;;;;12791954;23;20016;-84
2023/04/08 13:40:15;;;;;;;5.82;4.38;;;;;;;;;;12814547;23;20040;-80
2023/04/08 13:45:16;;;;;;;4.15;3.75;;;;;;;;;;12802903;23;20374;-81
2023/04/08 13:50:16;;;;;;;5.20;3.50;;;;;;;;;;12793640;23;20023;-82
2023/04/08 13:55:18;;;;;;;4.37;3.37;;;;;;;;;;12788108;23;20268;-83
2023/04/08 14:00:19;;;;;;;4.30;3.72;;;;;;;;;;12825807;23;20248;-80
2023/04/08 14:05:21;;;;;;;4.20;3.33;;;;;;;;;;12837654;23;19997;-80
2023/04/08 14:10:22;;;;;;;3.53;3.17;;;;;;;;;;12816270;23;20017;-82
2023/04/08 14:15:23;;;;;;;5.78;4.03;;;;;;;;;;12793410;23;20009;-81
2023/04/08 14:20:23;;;;;;;3.95;3.50;;;;;;;;;;12809059;23;20000;-80
2023/04/08 14:25:24;;;;;;;3.70;3.30;;;;;;;;;;12805366;23;20020;-80
2023/04/08 14:30:28;;;;;;;3.88;3.15;;;;;;;;;;12782697;23;20099;-80
2023/04/08 14:35:28;;;;;;;3.60;3.30;;;;;;;;;;12779194;23;20346;-80
2023/04/08 14:40:29;;;;;;;4.43;3.72;;;;;;;;;;12781949;23;20024;-81
2023/04/08 14:45:30;;;;;;;4.80;3.72;;;;;;;;;;12798327;23;20024;-80
2023/04/08 14:50:33;;;;;;;7.17;4.90;;;;;;;;;;12829605;23;20005;-82
2023/04/08 14:55:33;;;;;;;5.38;4.38;;;;;;;;;;12812349;23;20018;-81
2023/04/08 15:00:34;;;;;;;5.10;3.72;;;;;;;;;;12778061;23;20110;-78
2023/04/08 15:05:35;;;;;;;5.22;4.00;;;;;;;;;;12778963;23;20024;-82
2023/04/08 15:10:38;;;;;;;6.53;4.65;;;;;;;;;;12781538;23;20013;-81
2023/04/08 15:15:40;;;;;;;4.77;3.90;;;;;;;;;;12797198;23;19997;-83
2023/04/08 15:20:40;;;;;;;5.22;4.03;;;;;;;;;;12802343;23;20144;-81
2023/04/08 15:25:41;;;;;;;5.45;3.47;;;;;;;;;;12786438;23;20029;-81
2023/04/08 15:30:42;;;;;;;4.80;3.50;;;;;;;;;;12790291;23;20091;-83
2023/04/08 15:35:44;;;;;;;4.37;3.80;;;;;;;;;;12790318;23;20013;-81
2023/04/08 15:40:46;;;;;;;4.70;3.30;;;;;;;;;;12788398;23;20460;-81
2023/04/08 15:45:47;;;;;;;3.22;2.92;;;;;;;;;;12794877;23;20029;-82
2023/04/08 15:50:49;;;;;;;4.28;3.28;;;;;;;;;;12795839;23;20024;-80
2023/04/08 15:55:50;;;;;;;3.55;3.00;;;;;;;;;;12788172;23;20013;-82
2023/04/08 16:00:51;;;;;;;3.63;3.00;;;;;;;;;;12800980;23;20068;-81
2023/04/08 16:05:51;;;;;;;3.92;3.20;;;;;;;;;;12792327;23;20113;-83
2023/04/08 16:10:58;;;;;;;4.88;3.88;;;;;;;;;;12784307;23;20024;-82
2023/04/08 16:16:00;;;;;;;3.90;3.03;;;;;;;;;;12785743;23;20453;-82
2023/04/08 16:21:04;;;;;;;3.95;3.03;;;;;;;;;;12766419;23;20013;-81
2023/04/08 16:26:06;;;;;;;3.33;2.70;;;;;;;;;;12790832;23;20064;-82
2023/04/08 16:31:10;;;;;;;4.85;3.55;;;;;;;;;;12803430;23;20025;-81
2023/04/08 16:36:11;;;;;;;4.82;3.15;;;;;;;;;;12793452;23;20013;-81
2023/04/08 16:41:14;;;;;;;3.47;3.10;;;;;;;;;;12796877;23;20037;-83
2023/04/08 16:46:16;;;;;;;;;;;;;;;;;;12795229;23;20066;-79
2023/04/08 16:51:39;;;;;;;8.38;5.35;;;;;;;;;;12830514;22;20010;-80
2023/04/08 16:56:44;;;;;;;6.03;3.80;;;;;;;;;;12837045;23;20080;-81
2023/04/08 17:01:44;;;;;;;6.40;4.50;;;;;;;;;;12828372;23;20005;-83
2023/04/08 17:06:54;;;;;;;5.97;4.03;;;;;;;;;;12785342;23;20513;-82
2023/04/08 17:11:56;;;;;;;6.07;3.92;;;;;;;;;;12782689;23;20018;-82
2023/04/08 17:17:00;;;;;;;5.43;3.78;;;;;;;;;;12783660;23;20020;-81
2023/04/08 17:22:01;;;;;;;7.22;4.97;;;;;;;;;;12782261;23;20461;-80
2023/04/08 17:27:01;;;;;;;9.63;5.85;;;;;;;;;;12768995;23;20032;-79
2023/04/08 17:32:02;;;;;;;10.63;6.90;;;;;;;;;;12786441;23;20013;-83
2023/04/08 17:37:05;;;;;;;14.40;8.25;;;;;;;;;;12782975;23;20019;-81
2023/04/08 17:42:07;;;;;;;12.73;7.63;;;;;;;;;;12784129;23;20583;-81
2023/04/08 17:47:07;;;;;;;14.73;8.90;;;;;;;;;;12786961;23;20064;-81
2023/04/08 17:52:08;;;;;;;13.18;7.95;;;;;;;;;;12757995;23;20025;-80
2023/04/08 17:57:08;;;;;;;13.33;7.70;;;;;;;;;;12797644;23;20016;-82
2023/04/08 18:02:08;;;;;;;12.48;8.38;;;;;;;;;;12816765;23;20266;-79
2023/04/08 18:07:09;;;;;;;13.37;8.47;;;;;;;;;;12845928;23;19997;-81
2023/04/08 18:12:10;;;;;;;16.13;8.73;;;;;;;;;;12834336;23;20274;-79
2023/04/08 18:17:13;;;;;;;13.57;8.53;;;;;;;;;;12755231;23;20063;-80
2023/04/08 18:22:16;;;;;;;14.30;8.95;;;;;;;;;;12779041;23;20015;-79
2023/04/08 18:27:17;;;;;;;16.25;9.20;;;;;;;;;;12781510;23;20047;-81
2023/04/08 18:32:19;;;;;;;16.45;9.85;;;;;;;;;;12756315;23;20506;-82
2023/04/08 18:37:22;;;;;;;16.38;9.32;;;;;;;;;;12791660;23;20009;-84
2023/04/08 18:42:28;;;;;;;14.80;9.20;;;;;;;;;;12789431;23;20015;-79
2023/04/08 18:47:30;;;;;;;14.40;8.98;;;;;;;;;;12793506;23;20041;-82
2023/04/08 18:52:31;;;;;;;12.75;8.85;;;;;;;;;;12805365;23;20025;-83
2023/04/08 18:57:32;;;;;;;16.02;8.98;;;;;;;;;;12770760;23;20096;-84
2023/04/08 19:02:33;;;;;;;14.18;8.88;;;;;;;;;;12783390;23;20025;-84
2023/04/08 19:07:34;;;;;;;15.93;9.35;;;;;;;;;;12788113;23;20493;-86
2023/04/08 19:12:39;;;;;;;15.55;9.18;;;;;;;;;;12793572;23;20025;-92
2023/04/08 19:17:40;;;;;;;17.13;10.40;;;;;;;;;;12845209;23;20004;-89
2023/04/08 19:22:42;;;;;;;14.98;9.23;;;;;;;;;;12809620;23;20347;-84
2023/04/08 19:27:44;;;;;;;15.75;9.50;;;;;;;;;;12798935;23;20013;-84
2023/04/08 19:32:47;;;;;;;;;;;;;;;;;;12789423;23;20028;-84
2023/04/08 19:37:48;;;;;;;17.05;9.90;;;;;;;;;;12799030;23;19923;-84
2023/04/08 19:42:48;;;;;;;14.80;8.88;;;;;;;;;;12822719;23;20011;-84
2023/04/08 19:48:00;;;;;;;16.83;9.77;;;;;;;;;;12832365;23;20001;-87
2023/04/08 19:53:02;;;;;;;16.55;9.80;;;;;;;;;;12805246;22;20028;-88
2023/04/08 19:58:07;;;;;;;17.90;9.75;;;;;;;;;;12846053;23;20017;-83
2023/04/08 20:03:12;;;;;;;13.65;8.98;;;;;;;;;;12849959;23;20008;-86
2023/04/08 20:13:50;;;;;;;16.08;10.40;;;;;;;;;;12853294;23;20021;-81
2023/04/08 20:18:52;;;;;;;15.60;9.73;;;;;;;;;;12847652;23;19997;-82
2023/04/08 20:23:52;;;;;;;14.40;9.75;;;;;;;;;;12796885;23;20017;-81
2023/04/08 20:28:53;;;;;;;15.00;9.20;;;;;;;;;;12803848;23;20096;-84
2023/04/08 20:33:54;;;;;;;17.05;9.55;;;;;;;;;;12808551;23;20033;-87
2023/04/08 20:39:20;;;;;;;17.58;10.50;;;;;;;;;;12802385;23;20044;-86
2023/04/08 20:44:22;;;;;;;15.35;9.70;;;;;;;;;;12800188;23;20013;-86
2023/04/08 20:49:33;;;;;;;15.18;9.57;;;;;;;;;;12802409;23;20109;-85
2023/04/08 20:54:42;;;;;;;14.63;9.48;;;;;;;;;;12791280;23;20021;-82
2023/04/08 20:59:44;;;;;;;15.15;8.63;;;;;;;;;;12805452;23;20381;-83
2023/04/08 21:04:50;;;;;;;12.73;8.07;;;;;;;;;;12792585;23;20123;-85
2023/04/08 21:09:53;;;;;;;13.80;8.75;;;;;;;;;;12785084;23;20121;-83
2023/04/08 21:20:30;;;;;;;14.83;8.77;;;;;;;;;;12828019;23;20021;-87
2023/04/08 21:25:32;;;;;;;14.43;9.18;;;;;;;;;;12877322;23;20043;-84
2023/04/08 21:30:34;;;;;;;13.00;9.10;;;;;;;;;;12896017;23;20024;-87
2023/04/08 21:35:38;;;;;;;14.27;9.13;;;;;;;;;;12905524;22;20008;-87
2023/04/08 21:40:40;;;;;;;14.05;8.63;;;;;;;;;;12881354;22;20044;-84
2023/04/08 21:45:42;;;;;;;13.25;8.63;;;;;;;;;;12855910;23;20008;-83
2023/04/08 21:50:44;;;;;;;16.88;9.45;;;;;;;;;;12865199;23;20012;-83
2023/04/08 21:55:44;;;;;;;14.10;9.50;;;;;;;;;;12890245;22;20095;-80
2023/04/08 22:00:49;;;;;;;13.93;8.95;;;;;;;;;;12869830;22;19996;-86
2023/04/08 22:05:50;;;;;;;14.98;9.35;;;;;;;;;;12879135;22;20009;-79
2023/04/08 22:10:52;;;;;;;16.58;9.38;;;;;;;;;;12868064;23;20009;-79
2023/04/08 22:15:53;;;;;;;16.40;9.52;;;;;;;;;;12899243;22;20076;-84
2023/04/08 22:20:54;;;;;;;17.17;9.75;;;;;;;;;;12916062;22;20027;-80
2023/04/08 22:25:55;;;;;;;14.50;9.23;;;;;;;;;;12912538;22;20004;-79
2023/04/08 22:30:56;;;;;;;14.23;8.48;;;;;;;;;;12862244;23;20021;-82
2023/04/08 22:35:57;;;;;;;13.10;8.65;;;;;;;;;;12856846;23;20012;-81
2023/04/08 22:40:58;;;;;;;13.50;8.73;;;;;;;;;;12843812;23;20094;-82
2023/04/08 22:46:00;;;;;;;13.38;8.52;;;;;;;;;;12821048;23;20060;-81
2023/04/08 22:51:05;;;;;;;16.03;9.63;;;;;;;;;;12821517;23;20025;-85
2023/04/08 22:56:06;;;;;;;14.77;9.43;;;;;;;;;;12860002;23;20120;-82
2023/04/08 23:01:13;;;;;;;13.70;9.13;;;;;;;;;;12854513;23;20036;-83
2023/04/08 23:06:15;;;;;;;12.85;8.18;;;;;;;;;;12847522;23;20052;-83
2023/04/08 23:11:15;;;;;;;13.00;8.82;;;;;;;;;;12819740;23;20046;-80
2023/04/08 23:16:15;;;;;;;13.57;8.50;;;;;;;;;;12853165;23;20090;-81
2023/04/08 23:21:19;;;;;;;12.90;8.45;;;;;;;;;;12861126;23;20001;-83
2023/04/08 23:26:20;;;;;;;13.90;8.75;;;;;;;;;;12856915;23;20521;-84
2023/04/08 23:31:28;;;;;;;15.80;9.65;;;;;;;;;;12850626;23;20029;-82
2023/04/08 23:36:42;;;;;;;14.60;8.63;;;;;;;;;;12832176;23;20387;-83
2023/04/08 23:41:44;;;;;;;17.42;9.85;;;;;;;;;;12857057;23;20057;-80
2023/04/08 23:46:45;;;;;;;15.63;9.60;;;;;;;;;;12855971;23;20382;-81
2023/04/08 23:51:45;;;;;;;13.80;9.25;;;;;;;;;;12845262;23;20055;-81
2023/04/08 23:56:46;;;;;;;14.88;9.68;;;;;;;;;;12845598;23;20672;-79
